PWSweather.com
Personal Weather Stations
Station Observations
EW0150
Górny Śląsk, RybnikPL

Górny ŚląskRybnikPL

Lat: 50.087081, Lon: 18.527439

Elevation: 895

Station Type: Davis Vantage Pro 2 Plus

http://pogoda.poczta.rybnik.pl/index.htm

Latest ConditionsUpdated 8:10:03 AM GMT+01:01 Sunday, Dec 16, 2018
Currently Today's Max Today's Min Today's Average
Temperature 28.8°F-1.8°C 29.7°F-1.3°C 28.0°F-2.2°C 28.6°F-1.9°C
Dew Point 25.5°F-3.6°C 26.2°F-3.2°C 24.6°F-4.1°C 25.3°F-3.7°C
Winds Calm Calm 5.0 mph -8.0 kmh - - 1.9 mph 3.1 kmh
Wind Gusts -- 13.0 mph20.9 kmh - -
Humidity 88% 89% 85% 87%
Pressure 30.10 in1019.3 mb 30.15 in1021.0 mb 30.09 in1019.0 mb -
Hour Temp Dew Point Humidity Winds Wind Gusts Pressure Precip Precip Rate Daily Precip Total
08:10 AM 28.8°F-1.8°C 25.5°F-3.6°C 88% Calm Calm -- 30.10 in1019.3 mb 0.00 in0.0 mm 0.00 in0.0 mm 0.00 in0.0 mm
08:00 AM 28.6°F-1.9°C 25.3°F-3.7°C 88% Calm Calm -- 30.10 in1019.3 mb 0.00 in0.0 mm 0.00 in0.0 mm 0.00 in0.0 mm
07:50 AM 28.2°F-2.1°C 25.0°F-3.9°C 87% Calm Calm -- 30.10 in1019.3 mb 0.00 in0.0 mm 0.00 in0.0 mm 0.00 in0.0 mm
07:40 AM 28.6°F-1.9°C 24.8°F-4.0°C 86% Calm Calm -- 30.10 in1019.3 mb 0.00 in0.0 mm 0.00 in0.0 mm 0.00 in0.0 mm
07:30 AM 28.4°F-2.0°C 25.0°F-3.9°C 87% Calm Calm -- 30.09 in1019.0 mb 0.00 in0.0 mm 0.00 in0.0 mm 0.00 in0.0 mm
07:20 AM 28.2°F-2.1°C 24.6°F-4.1°C 86% Calm Calm -- 30.09 in1019.0 mb 0.00 in0.0 mm 0.00 in0.0 mm 0.00 in0.0 mm
07:10 AM 28.6°F-1.9°C 24.8°F-4.0°C 86% Calm Calm -- 30.09 in1019.0 mb 0.00 in0.0 mm 0.00 in0.0 mm 0.00 in0.0 mm
07:00 AM 28.2°F-2.1°C 24.6°F-4.1°C 86% Calm Calm -- 30.09 in1019.0 mb 0.00 in0.0 mm 0.00 in0.0 mm 0.00 in0.0 mm
06:50 AM 28.8°F-1.8°C 24.8°F-4.0°C 85% Calm Calm -- 30.09 in1019.0 mb 0.00 in0.0 mm 0.00 in0.0 mm 0.00 in0.0 mm
06:40 AM 29.1°F-1.6°C 25.5°F-3.6°C 86% Calm Calm -- 30.09 in1019.0 mb 0.00 in0.0 mm 0.00 in0.0 mm 0.00 in0.0 mm
06:30 AM 29.3°F-1.5°C 25.7°F-3.5°C 86% Calm Calm -- 30.09 in1019.0 mb 0.00 in0.0 mm 0.00 in0.0 mm 0.00 in0.0 mm
06:20 AM 29.3°F-1.5°C 25.7°F-3.5°C 86% Calm Calm -- 30.09 in1019.0 mb 0.00 in0.0 mm 0.00 in0.0 mm 0.00 in0.0 mm
06:10 AM 29.1°F-1.6°C 25.5°F-3.6°C 86% Calm Calm -- 30.09 in1019.0 mb 0.00 in0.0 mm 0.00 in0.0 mm 0.00 in0.0 mm
06:00 AM 28.8°F-1.8°C 25.0°F-3.9°C 86% Calm Calm -- 30.09 in1019.0 mb 0.00 in0.0 mm 0.00 in0.0 mm 0.00 in0.0 mm
05:50 AM 28.6°F-1.9°C 24.6°F-4.1°C 85% Calm Calm -- 30.10 in1019.3 mb 0.00 in0.0 mm 0.00 in0.0 mm 0.00 in0.0 mm
05:40 AM 29.1°F-1.6°C 25.5°F-3.6°C 86% Calm Calm -- 30.10 in1019.3 mb 0.00 in0.0 mm 0.00 in0.0 mm 0.00 in0.0 mm
05:30 AM 28.9°F-1.7°C 25.3°F-3.7°C 86% Calm Calm -- 30.10 in1019.3 mb 0.00 in0.0 mm 0.00 in0.0 mm 0.00 in0.0 mm
05:20 AM 28.9°F-1.7°C 25.0°F-3.9°C 85% Calm Calm -- 30.10 in1019.3 mb 0.00 in0.0 mm 0.00 in0.0 mm 0.00 in0.0 mm
05:10 AM 29.5°F-1.4°C 25.5°F-3.6°C 85% Calm Calm -- 30.11 in1019.6 mb 0.00 in0.0 mm 0.00 in0.0 mm 0.00 in0.0 mm
05:00 AM 29.7°F-1.3°C 25.9°F-3.4°C 86% 2.0 mph NNE3.2 kmh NNE 5.0 mph8.0 kmh 30.11 in1019.6 mb 0.00 in0.0 mm 0.00 in0.0 mm 0.00 in0.0 mm
04:50 AM 29.7°F-1.3°C 26.2°F-3.2°C 87% 1.0 mph NE1.6 kmh NE 4.0 mph6.4 kmh 30.11 in1019.6 mb 0.00 in0.0 mm 0.00 in0.0 mm 0.00 in0.0 mm
04:40 AM 29.1°F-1.6°C 25.9°F-3.4°C 87% 1.0 mph NE1.6 kmh NE 4.0 mph6.4 kmh 30.11 in1019.6 mb 0.00 in0.0 mm 0.00 in0.0 mm 0.00 in0.0 mm
04:30 AM 29.1°F-1.6°C 25.7°F-3.5°C 87% 2.0 mph NNE3.2 kmh NNE 5.0 mph8.0 kmh 30.11 in1019.6 mb 0.00 in0.0 mm 0.00 in0.0 mm 0.00 in0.0 mm
04:20 AM 28.8°F-1.8°C 25.2°F-3.8°C 86% 2.0 mph NE3.2 kmh NE 4.0 mph6.4 kmh 30.11 in1019.6 mb 0.00 in0.0 mm 0.00 in0.0 mm 0.00 in0.0 mm
04:10 AM 28.9°F-1.7°C 25.7°F-3.5°C 87% 1.0 mph NE1.6 kmh NE 7.0 mph11.3 kmh 30.11 in1019.6 mb 0.00 in0.0 mm 0.00 in0.0 mm 0.00 in0.0 mm
04:00 AM 28.9°F-1.7°C 25.5°F-3.6°C 87% 1.0 mph N1.6 kmh N 3.0 mph4.8 kmh 30.11 in1019.6 mb 0.00 in0.0 mm 0.00 in0.0 mm 0.00 in0.0 mm
03:50 AM 28.6°F-1.9°C 25.2°F-3.8°C 87% 2.0 mph NE3.2 kmh NE 5.0 mph8.0 kmh 30.11 in1019.6 mb 0.00 in0.0 mm 0.00 in0.0 mm 0.00 in0.0 mm
03:40 AM 28.8°F-1.8°C 25.3°F-3.7°C 87% 2.0 mph NNE3.2 kmh NNE 7.0 mph11.3 kmh 30.12 in1020.0 mb 0.00 in0.0 mm 0.00 in0.0 mm 0.00 in0.0 mm
03:30 AM 28.2°F-2.1°C 25.0°F-3.9°C 87% 2.0 mph NE3.2 kmh NE 7.0 mph11.3 kmh 30.12 in1020.0 mb 0.00 in0.0 mm 0.00 in0.0 mm 0.00 in0.0 mm
03:20 AM 28.8°F-1.8°C 25.3°F-3.7°C 87% 3.0 mph NNE4.8 kmh NNE 8.0 mph12.9 kmh 30.12 in1020.0 mb 0.00 in0.0 mm 0.00 in0.0 mm 0.00 in0.0 mm
03:10 AM 29.1°F-1.6°C 25.7°F-3.5°C 87% 3.0 mph NNE4.8 kmh NNE 7.0 mph11.3 kmh 30.13 in1020.3 mb 0.00 in0.0 mm 0.00 in0.0 mm 0.00 in0.0 mm
03:00 AM 28.9°F-1.7°C 25.9°F-3.4°C 88% 2.0 mph NNE3.2 kmh NNE 7.0 mph11.3 kmh 30.13 in1020.3 mb 0.00 in0.0 mm 0.00 in0.0 mm 0.00 in0.0 mm
02:50 AM 28.8°F-1.8°C 25.5°F-3.6°C 88% 3.0 mph NNE4.8 kmh NNE 9.0 mph14.5 kmh 30.13 in1020.3 mb 0.00 in0.0 mm 0.00 in0.0 mm 0.00 in0.0 mm
02:40 AM 28.6°F-1.9°C 25.3°F-3.7°C 88% 2.0 mph NE3.2 kmh NE 7.0 mph11.3 kmh 30.13 in1020.3 mb 0.00 in0.0 mm 0.00 in0.0 mm 0.00 in0.0 mm
02:30 AM 28.6°F-1.9°C 25.5°F-3.6°C 88% 2.0 mph NE3.2 kmh NE 8.0 mph12.9 kmh 30.13 in1020.3 mb 0.00 in0.0 mm 0.00 in0.0 mm 0.00 in0.0 mm
02:20 AM 28.6°F-1.9°C 25.3°F-3.7°C 88% 4.0 mph NNE6.4 kmh NNE 11.0 mph17.7 kmh 30.14 in1020.7 mb 0.00 in0.0 mm 0.00 in0.0 mm 0.00 in0.0 mm
02:10 AM 28.4°F-2.0°C 25.3°F-3.7°C 88% 3.0 mph NE4.8 kmh NE 9.0 mph14.5 kmh 30.14 in1020.7 mb 0.00 in0.0 mm 0.00 in0.0 mm 0.00 in0.0 mm
02:00 AM 28.2°F-2.1°C 25.5°F-3.6°C 89% 5.0 mph NNE8.0 kmh NNE 10.0 mph16.1 kmh 30.15 in1021.0 mb 0.00 in0.0 mm 0.00 in0.0 mm 0.00 in0.0 mm
01:50 AM 28.0°F-2.2°C 25.0°F-3.9°C 88% 5.0 mph NNE8.0 kmh NNE 11.0 mph17.7 kmh 30.14 in1020.7 mb 0.00 in0.0 mm 0.00 in0.0 mm 0.00 in0.0 mm
01:40 AM 28.0°F-2.2°C 25.0°F-3.9°C 88% 4.0 mph NNE6.4 kmh NNE 10.0 mph16.1 kmh 30.14 in1020.7 mb 0.00 in0.0 mm 0.00 in0.0 mm 0.00 in0.0 mm
01:30 AM 28.0°F-2.2°C 25.0°F-3.9°C 88% 5.0 mph NNE8.0 kmh NNE 10.0 mph16.1 kmh 30.14 in1020.7 mb 0.00 in0.0 mm 0.00 in0.0 mm 0.00 in0.0 mm
01:20 AM 28.2°F-2.1°C 25.2°F-3.8°C 88% 3.0 mph NNE4.8 kmh NNE 9.0 mph14.5 kmh 30.15 in1021.0 mb 0.00 in0.0 mm 0.00 in0.0 mm 0.00 in0.0 mm
01:10 AM 28.2°F-2.1°C 25.2°F-3.8°C 88% 5.0 mph NE8.0 kmh NE 11.0 mph17.7 kmh 30.15 in1021.0 mb 0.00 in0.0 mm 0.00 in0.0 mm 0.00 in0.0 mm
01:00 AM 28.0°F-2.2°C 25.3°F-3.7°C 89% 3.0 mph NNE4.8 kmh NNE 9.0 mph14.5 kmh 30.15 in1021.0 mb 0.00 in0.0 mm 0.00 in0.0 mm 0.00 in0.0 mm
12:50 AM 28.2°F-2.1°C 25.3°F-3.7°C 89% 3.0 mph NNE4.8 kmh NNE 12.0 mph19.3 kmh 30.15 in1021.0 mb 0.00 in0.0 mm 0.00 in0.0 mm 0.00 in0.0 mm
12:40 AM 28.2°F-2.1°C 25.3°F-3.7°C 89% 5.0 mph NNE8.0 kmh NNE 11.0 mph17.7 kmh 30.15 in1021.0 mb 0.00 in0.0 mm 0.00 in0.0 mm 0.00 in0.0 mm
12:30 AM 28.0°F-2.2°C 25.2°F-3.8°C 89% 5.0 mph NNE8.0 kmh NNE 10.0 mph16.1 kmh 30.15 in1021.0 mb 0.00 in0.0 mm 0.00 in0.0 mm 0.00 in0.0 mm
12:20 AM 28.2°F-2.1°C 25.3°F-3.7°C 89% 4.0 mph NNE6.4 kmh NNE 10.0 mph16.1 kmh 30.15 in1021.0 mb 0.00 in0.0 mm 0.00 in0.0 mm 0.00 in0.0 mm
12:10 AM 28.2°F-2.1°C 25.5°F-3.6°C 89% 4.0 mph NNE6.4 kmh NNE 12.0 mph19.3 kmh 30.15 in1021.0 mb 0.00 in0.0 mm 0.00 in0.0 mm 0.00 in0.0 mm
12:00 AM 28.2°F-2.1°C 25.5°F-3.6°C 89% 5.0 mph NNE8.0 kmh NNE 13.0 mph20.9 kmh 30.15 in1021.0 mb 0.00 in0.0 mm 0.00 in0.0 mm 0.00 in0.0 mm